sensor_id;sensor_type;location;lat;lon;timestamp;P1;durP1;ratioP1;P2;durP2;ratioP2
635;SDS011;302;50.206;8.196;2022-08-19T00:02:21;24.92;;;22.13;;
635;SDS011;302;50.206;8.196;2022-08-19T00:04:47;23.17;;;20.97;;
635;SDS011;302;50.206;8.196;2022-08-19T00:07:17;22.40;;;20.20;;
635;SDS011;302;50.206;8.196;2022-08-19T00:09:42;24.50;;;22.10;;
635;SDS011;302;50.206;8.196;2022-08-19T00:12:07;22.17;;;19.98;;
635;SDS011;302;50.206;8.196;2022-08-19T00:14:33;24.02;;;21.80;;
635;SDS011;302;50.206;8.196;2022-08-19T00:17:00;24.80;;;22.43;;
635;SDS011;302;50.206;8.196;2022-08-19T00:19:25;23.50;;;21.33;;
635;SDS011;302;50.206;8.196;2022-08-19T00:21:51;24.63;;;22.13;;
635;SDS011;302;50.206;8.196;2022-08-19T00:24:16;23.37;;;21.03;;
635;SDS011;302;50.206;8.196;2022-08-19T00:26:42;24.20;;;21.90;;
635;SDS011;302;50.206;8.196;2022-08-19T00:29:08;22.40;;;20.10;;
635;SDS011;302;50.206;8.196;2022-08-19T00:31:34;24.70;;;22.20;;
635;SDS011;302;50.206;8.196;2022-08-19T00:33:59;24.50;;;22.20;;
635;SDS011;302;50.206;8.196;2022-08-19T00:36:24;23.60;;;21.10;;
635;SDS011;302;50.206;8.196;2022-08-19T00:38:49;24.70;;;22.40;;
635;SDS011;302;50.206;8.196;2022-08-19T00:41:18;21.80;;;19.70;;
635;SDS011;302;50.206;8.196;2022-08-19T00:43:56;25.42;;;22.85;;
635;SDS011;302;50.206;8.196;2022-08-19T00:46:21;24.65;;;22.25;;
635;SDS011;302;50.206;8.196;2022-08-19T00:48:46;24.13;;;21.93;;
635;SDS011;302;50.206;8.196;2022-08-19T00:51:12;21.90;;;19.73;;
635;SDS011;302;50.206;8.196;2022-08-19T00:53:37;23.87;;;21.57;;
635;SDS011;302;50.206;8.196;2022-08-19T00:56:02;24.38;;;21.83;;
635;SDS011;302;50.206;8.196;2022-08-19T00:58:30;24.48;;;22.00;;
635;SDS011;302;50.206;8.196;2022-08-19T01:00:56;23.58;;;21.20;;
635;SDS011;302;50.206;8.196;2022-08-19T01:03:22;25.50;;;23.07;;
635;SDS011;302;50.206;8.196;2022-08-19T01:05:47;24.17;;;21.60;;
635;SDS011;302;50.206;8.196;2022-08-19T01:08:14;25.20;;;22.75;;
635;SDS011;302;50.206;8.196;2022-08-19T01:10:42;23.92;;;21.52;;
635;SDS011;302;50.206;8.196;2022-08-19T01:13:08;24.98;;;22.45;;
635;SDS011;302;50.206;8.196;2022-08-19T01:15:35;26.20;;;23.50;;
635;SDS011;302;50.206;8.196;2022-08-19T01:18:02;25.70;;;23.23;;
635;SDS011;302;50.206;8.196;2022-08-19T01:20:29;27.85;;;24.92;;
635;SDS011;302;50.206;8.196;2022-08-19T01:22:55;28.47;;;25.50;;
635;SDS011;302;50.206;8.196;2022-08-19T01:25:22;26.95;;;24.20;;
635;SDS011;302;50.206;8.196;2022-08-19T01:27:49;26.85;;;24.10;;
635;SDS011;302;50.206;8.196;2022-08-19T01:30:17;28.25;;;25.45;;
635;SDS011;302;50.206;8.196;2022-08-19T01:32:42;27.77;;;24.85;;
635;SDS011;302;50.206;8.196;2022-08-19T01:35:08;31.17;;;28.07;;
635;SDS011;302;50.206;8.196;2022-08-19T01:37:48;29.08;;;26.05;;
635;SDS011;302;50.206;8.196;2022-08-19T01:40:13;29.05;;;26.05;;
635;SDS011;302;50.206;8.196;2022-08-19T01:42:39;27.13;;;24.40;;
635;SDS011;302;50.206;8.196;2022-08-19T01:45:05;29.17;;;26.17;;
635;SDS011;302;50.206;8.196;2022-08-19T01:47:31;27.15;;;24.27;;
635;SDS011;302;50.206;8.196;2022-08-19T01:49:57;26.03;;;23.40;;
635;SDS011;302;50.206;8.196;2022-08-19T01:52:22;26.10;;;23.60;;
635;SDS011;302;50.206;8.196;2022-08-19T01:54:48;27.00;;;24.15;;
635;SDS011;302;50.206;8.196;2022-08-19T01:57:13;26.42;;;23.75;;
635;SDS011;302;50.206;8.196;2022-08-19T01:59:39;25.80;;;23.20;;
635;SDS011;302;50.206;8.196;2022-08-19T02:02:04;25.50;;;22.93;;
635;SDS011;302;50.206;8.196;2022-08-19T02:04:32;25.83;;;23.23;;
635;SDS011;302;50.206;8.196;2022-08-19T02:06:57;25.17;;;22.77;;
635;SDS011;302;50.206;8.196;2022-08-19T02:09:22;24.93;;;22.40;;
635;SDS011;302;50.206;8.196;2022-08-19T02:11:47;27.07;;;24.23;;
635;SDS011;302;50.206;8.196;2022-08-19T02:14:13;22.87;;;20.77;;
635;SDS011;302;50.206;8.196;2022-08-19T02:16:38;22.00;;;19.90;;
635;SDS011;302;50.206;8.196;2022-08-19T02:19:05;21.77;;;19.70;;
635;SDS011;302;50.206;8.196;2022-08-19T02:21:30;22.40;;;20.40;;
635;SDS011;302;50.206;8.196;2022-08-19T02:23:55;22.50;;;20.37;;
635;SDS011;302;50.206;8.196;2022-08-19T02:26:20;22.90;;;20.80;;
635;SDS011;302;50.206;8.196;2022-08-19T02:28:46;22.17;;;19.97;;
635;SDS011;302;50.206;8.196;2022-08-19T02:31:12;20.73;;;18.83;;
635;SDS011;302;50.206;8.196;2022-08-19T02:33:37;22.02;;;19.83;;
635;SDS011;302;50.206;8.196;2022-08-19T02:36:04;21.17;;;18.87;;
635;SDS011;302;50.206;8.196;2022-08-19T02:38:29;21.85;;;19.67;;
635;SDS011;302;50.206;8.196;2022-08-19T02:41:28;21.07;;;19.07;;
635;SDS011;302;50.206;8.196;2022-08-19T02:43:46;19.40;;;17.50;;
635;SDS011;302;50.206;8.196;2022-08-19T02:46:22;22.57;;;20.37;;
635;SDS011;302;50.206;8.196;2022-08-19T02:48:48;20.23;;;18.38;;
635;SDS011;302;50.206;8.196;2022-08-19T02:51:33;21.43;;;19.43;;
635;SDS011;302;50.206;8.196;2022-08-19T02:53:58;20.67;;;18.73;;
635;SDS011;302;50.206;8.196;2022-08-19T02:56:25;20.10;;;18.30;;
635;SDS011;302;50.206;8.196;2022-08-19T02:58:51;21.58;;;19.38;;
635;SDS011;302;50.206;8.196;2022-08-19T03:01:29;19.10;;;17.37;;
635;SDS011;302;50.206;8.196;2022-08-19T03:03:55;19.80;;;17.95;;
635;SDS011;302;50.206;8.196;2022-08-19T03:06:20;19.90;;;18.10;;
635;SDS011;302;50.206;8.196;2022-08-19T03:08:46;20.37;;;18.43;;
635;SDS011;302;50.206;8.196;2022-08-19T03:11:13;19.70;;;17.70;;
635;SDS011;302;50.206;8.196;2022-08-19T03:13:38;20.10;;;18.13;;
635;SDS011;302;50.206;8.196;2022-08-19T03:16:04;21.17;;;18.37;;
635;SDS011;302;50.206;8.196;2022-08-19T03:18:30;22.08;;;19.92;;
635;SDS011;302;50.206;8.196;2022-08-19T03:20:55;20.40;;;18.40;;
635;SDS011;302;50.206;8.196;2022-08-19T03:23:21;23.67;;;21.27;;
635;SDS011;302;50.206;8.196;2022-08-19T03:25:47;21.23;;;19.13;;
635;SDS011;302;50.206;8.196;2022-08-19T03:28:14;21.63;;;19.65;;
635;SDS011;302;50.206;8.196;2022-08-19T03:30:40;20.77;;;18.77;;
635;SDS011;302;50.206;8.196;2022-08-19T03:33:06;20.63;;;18.80;;
635;SDS011;302;50.206;8.196;2022-08-19T03:35:31;20.37;;;18.27;;
635;SDS011;302;50.206;8.196;2022-08-19T03:37:57;21.63;;;19.53;;
635;SDS011;302;50.206;8.196;2022-08-19T03:40:23;20.83;;;18.77;;
635;SDS011;302;50.206;8.196;2022-08-19T03:42:48;21.60;;;19.60;;
635;SDS011;302;50.206;8.196;2022-08-19T03:45:14;19.97;;;18.17;;
635;SDS011;302;50.206;8.196;2022-08-19T03:47:39;16.83;;;15.10;;
635;SDS011;302;50.206;8.196;2022-08-19T03:50:04;21.20;;;19.10;;
635;SDS011;302;50.206;8.196;2022-08-19T03:52:30;20.67;;;18.60;;
635;SDS011;302;50.206;8.196;2022-08-19T03:54:55;22.30;;;20.10;;
635;SDS011;302;50.206;8.196;2022-08-19T03:57:20;20.60;;;18.50;;
635;SDS011;302;50.206;8.196;2022-08-19T03:59:45;19.77;;;17.83;;
635;SDS011;302;50.206;8.196;2022-08-19T04:02:11;20.10;;;18.20;;
635;SDS011;302;50.206;8.196;2022-08-19T04:04:37;21.17;;;19.10;;
635;SDS011;302;50.206;8.196;2022-08-19T04:07:02;24.35;;;20.50;;
635;SDS011;302;50.206;8.196;2022-08-19T04:09:28;19.00;;;17.20;;
635;SDS011;302;50.206;8.196;2022-08-19T04:11:53;20.00;;;17.97;;
635;SDS011;302;50.206;8.196;2022-08-19T04:14:20;20.83;;;18.75;;
635;SDS011;302;50.206;8.196;2022-08-19T04:16:46;20.10;;;18.20;;
635;SDS011;302;50.206;8.196;2022-08-19T04:19:12;19.70;;;17.80;;
635;SDS011;302;50.206;8.196;2022-08-19T04:21:38;21.07;;;18.97;;
635;SDS011;302;50.206;8.196;2022-08-19T04:24:03;18.90;;;17.20;;
635;SDS011;302;50.206;8.196;2022-08-19T04:26:30;20.80;;;18.77;;
635;SDS011;302;50.206;8.196;2022-08-19T04:28:59;21.27;;;19.17;;
635;SDS011;302;50.206;8.196;2022-08-19T04:31:25;21.63;;;19.40;;
635;SDS011;302;50.206;8.196;2022-08-19T04:33:55;20.58;;;18.35;;
635;SDS011;302;50.206;8.196;2022-08-19T04:36:23;19.95;;;18.15;;
635;SDS011;302;50.206;8.196;2022-08-19T04:38:49;20.40;;;18.48;;
635;SDS011;302;50.206;8.196;2022-08-19T04:41:14;18.20;;;16.33;;
635;SDS011;302;50.206;8.196;2022-08-19T04:43:58;19.70;;;17.95;;
635;SDS011;302;50.206;8.196;2022-08-19T04:46:23;20.43;;;18.40;;
635;SDS011;302;50.206;8.196;2022-08-19T04:48:49;19.03;;;17.33;;
635;SDS011;302;50.206;8.196;2022-08-19T04:51:14;18.90;;;17.10;;
635;SDS011;302;50.206;8.196;2022-08-19T04:53:40;19.57;;;17.73;;
635;SDS011;302;50.206;8.196;2022-08-19T04:56:08;20.23;;;18.13;;
635;SDS011;302;50.206;8.196;2022-08-19T04:58:33;19.52;;;17.73;;
635;SDS011;302;50.206;8.196;2022-08-19T05:00:59;21.57;;;19.47;;
635;SDS011;302;50.206;8.196;2022-08-19T05:03:25;21.70;;;19.67;;
635;SDS011;302;50.206;8.196;2022-08-19T05:05:50;24.30;;;21.90;;
635;SDS011;302;50.206;8.196;2022-08-19T05:08:16;25.35;;;22.70;;
635;SDS011;302;50.206;8.196;2022-08-19T05:10:45;25.25;;;22.90;;
635;SDS011;302;50.206;8.196;2022-08-19T05:13:11;21.95;;;19.75;;
635;SDS011;302;50.206;8.196;2022-08-19T05:15:37;22.93;;;20.63;;
635;SDS011;302;50.206;8.196;2022-08-19T05:18:02;24.73;;;22.33;;
635;SDS011;302;50.206;8.196;2022-08-19T05:20:46;22.70;;;20.55;;
635;SDS011;302;50.206;8.196;2022-08-19T05:23:29;24.25;;;21.75;;
635;SDS011;302;50.206;8.196;2022-08-19T05:25:55;25.13;;;22.63;;
635;SDS011;302;50.206;8.196;2022-08-19T05:28:20;25.13;;;22.63;;
635;SDS011;302;50.206;8.196;2022-08-19T05:30:45;28.50;;;25.70;;
635;SDS011;302;50.206;8.196;2022-08-19T05:33:11;24.50;;;22.10;;
635;SDS011;302;50.206;8.196;2022-08-19T05:35:37;25.63;;;23.07;;
635;SDS011;302;50.206;8.196;2022-08-19T05:38:03;25.57;;;23.17;;
635;SDS011;302;50.206;8.196;2022-08-19T05:40:28;25.77;;;23.23;;
635;SDS011;302;50.206;8.196;2022-08-19T05:42:53;24.33;;;22.03;;
635;SDS011;302;50.206;8.196;2022-08-19T05:45:18;23.53;;;21.23;;
635;SDS011;302;50.206;8.196;2022-08-19T05:47:43;26.00;;;23.40;;
635;SDS011;302;50.206;8.196;2022-08-19T05:50:09;25.95;;;23.35;;
635;SDS011;302;50.206;8.196;2022-08-19T05:52:36;25.73;;;23.13;;
635;SDS011;302;50.206;8.196;2022-08-19T05:55:03;23.00;;;20.60;;
635;SDS011;302;50.206;8.196;2022-08-19T05:57:28;25.80;;;23.10;;
635;SDS011;302;50.206;8.196;2022-08-19T05:59:53;23.30;;;21.07;;
635;SDS011;302;50.206;8.196;2022-08-19T06:02:19;25.17;;;22.53;;
635;SDS011;302;50.206;8.196;2022-08-19T06:04:44;26.63;;;23.73;;
635;SDS011;302;50.206;8.196;2022-08-19T06:07:09;22.27;;;19.93;;
635;SDS011;302;50.206;8.196;2022-08-19T06:09:34;24.77;;;22.33;;
635;SDS011;302;50.206;8.196;2022-08-19T06:12:00;24.20;;;21.90;;
635;SDS011;302;50.206;8.196;2022-08-19T06:14:30;24.05;;;21.75;;
635;SDS011;302;50.206;8.196;2022-08-19T06:16:55;24.40;;;21.95;;
635;SDS011;302;50.206;8.196;2022-08-19T06:19:21;24.60;;;22.23;;
635;SDS011;302;50.206;8.196;2022-08-19T06:21:48;23.25;;;21.05;;
635;SDS011;302;50.206;8.196;2022-08-19T06:24:15;22.90;;;20.80;;
635;SDS011;302;50.206;8.196;2022-08-19T06:26:42;22.80;;;20.70;;
635;SDS011;302;50.206;8.196;2022-08-19T06:29:08;22.20;;;20.10;;
635;SDS011;302;50.206;8.196;2022-08-19T06:31:34;22.52;;;20.38;;
635;SDS011;302;50.206;8.196;2022-08-19T06:34:01;23.23;;;20.97;;
635;SDS011;302;50.206;8.196;2022-08-19T06:36:29;22.48;;;20.27;;
635;SDS011;302;50.206;8.196;2022-08-19T06:39:09;21.55;;;19.52;;
635;SDS011;302;50.206;8.196;2022-08-19T06:41:36;21.67;;;19.70;;
635;SDS011;302;50.206;8.196;2022-08-19T06:44:02;22.88;;;20.67;;
635;SDS011;302;50.206;8.196;2022-08-19T06:46:27;20.60;;;18.70;;
635;SDS011;302;50.206;8.196;2022-08-19T06:48:52;18.47;;;16.87;;
635;SDS011;302;50.206;8.196;2022-08-19T06:51:19;20.63;;;18.67;;
635;SDS011;302;50.206;8.196;2022-08-19T06:53:45;17.53;;;15.93;;
635;SDS011;302;50.206;8.196;2022-08-19T06:56:12;19.77;;;17.90;;
635;SDS011;302;50.206;8.196;2022-08-19T06:58:37;15.88;;;14.48;;
635;SDS011;302;50.206;8.196;2022-08-19T07:01:03;18.33;;;16.70;;
635;SDS011;302;50.206;8.196;2022-08-19T07:03:30;19.07;;;16.50;;
635;SDS011;302;50.206;8.196;2022-08-19T07:05:56;18.95;;;17.25;;
635;SDS011;302;50.206;8.196;2022-08-19T07:08:21;18.17;;;16.40;;
635;SDS011;302;50.206;8.196;2022-08-19T07:10:46;16.83;;;15.33;;
635;SDS011;302;50.206;8.196;2022-08-19T07:13:12;17.23;;;15.50;;
635;SDS011;302;50.206;8.196;2022-08-19T07:15:38;17.40;;;15.70;;
635;SDS011;302;50.206;8.196;2022-08-19T07:18:03;15.63;;;14.30;;
635;SDS011;302;50.206;8.196;2022-08-19T07:20:28;16.50;;;14.93;;
635;SDS011;302;50.206;8.196;2022-08-19T07:22:53;15.30;;;13.90;;
635;SDS011;302;50.206;8.196;2022-08-19T07:25:19;15.52;;;14.10;;
635;SDS011;302;50.206;8.196;2022-08-19T07:27:45;16.23;;;14.77;;
635;SDS011;302;50.206;8.196;2022-08-19T07:30:13;14.52;;;13.13;;
635;SDS011;302;50.206;8.196;2022-08-19T07:32:39;14.23;;;12.73;;
635;SDS011;302;50.206;8.196;2022-08-19T07:35:04;15.37;;;13.03;;
635;SDS011;302;50.206;8.196;2022-08-19T07:37:31;14.20;;;12.98;;
635;SDS011;302;50.206;8.196;2022-08-19T07:39:56;14.50;;;13.10;;
635;SDS011;302;50.206;8.196;2022-08-19T07:42:21;15.53;;;14.07;;
635;SDS011;302;50.206;8.196;2022-08-19T07:44:47;15.40;;;13.80;;
635;SDS011;302;50.206;8.196;2022-08-19T07:47:12;17.43;;;15.73;;
635;SDS011;302;50.206;8.196;2022-08-19T07:49:40;18.48;;;14.70;;
635;SDS011;302;50.206;8.196;2022-08-19T07:52:07;16.27;;;14.87;;
635;SDS011;302;50.206;8.196;2022-08-19T07:54:33;16.38;;;14.88;;
635;SDS011;302;50.206;8.196;2022-08-19T07:56:59;15.00;;;13.63;;
635;SDS011;302;50.206;8.196;2022-08-19T07:59:25;16.50;;;15.00;;
635;SDS011;302;50.206;8.196;2022-08-19T08:01:50;19.10;;;17.20;;
635;SDS011;302;50.206;8.196;2022-08-19T08:04:16;21.53;;;19.43;;
635;SDS011;302;50.206;8.196;2022-08-19T08:07:00;22.63;;;20.43;;
635;SDS011;302;50.206;8.196;2022-08-19T08:09:44;19.53;;;17.63;;
635;SDS011;302;50.206;8.196;2022-08-19T08:12:14;19.30;;;17.50;;
635;SDS011;302;50.206;8.196;2022-08-19T08:14:50;23.43;;;17.50;;
635;SDS011;302;50.206;8.196;2022-08-19T08:17:16;21.07;;;19.03;;
635;SDS011;302;50.206;8.196;2022-08-19T08:19:42;22.00;;;19.77;;
635;SDS011;302;50.206;8.196;2022-08-19T08:22:07;23.83;;;21.53;;
635;SDS011;302;50.206;8.196;2022-08-19T08:24:34;20.33;;;18.43;;
635;SDS011;302;50.206;8.196;2022-08-19T08:27:00;21.00;;;19.00;;
635;SDS011;302;50.206;8.196;2022-08-19T08:29:29;22.13;;;20.03;;
635;SDS011;302;50.206;8.196;2022-08-19T08:31:55;20.10;;;18.00;;
635;SDS011;302;50.206;8.196;2022-08-19T08:34:20;18.60;;;16.77;;
635;SDS011;302;50.206;8.196;2022-08-19T08:36:46;22.00;;;19.77;;
635;SDS011;302;50.206;8.196;2022-08-19T08:39:12;21.50;;;19.40;;
635;SDS011;302;50.206;8.196;2022-08-19T08:44:06;24.30;;;21.90;;
635;SDS011;302;50.206;8.196;2022-08-19T08:46:38;24.83;;;22.33;;
635;SDS011;302;50.206;8.196;2022-08-19T08:49:07;27.00;;;24.30;;
635;SDS011;302;50.206;8.196;2022-08-19T08:51:38;30.50;;;27.30;;
635;SDS011;302;50.206;8.196;2022-08-19T08:54:06;34.67;;;30.03;;
635;SDS011;302;50.206;8.196;2022-08-19T08:56:32;32.77;;;29.57;;
635;SDS011;302;50.206;8.196;2022-08-19T08:58:59;33.23;;;29.87;;
635;SDS011;302;50.206;8.196;2022-08-19T09:01:26;31.87;;;28.77;;
635;SDS011;302;50.206;8.196;2022-08-19T09:03:51;30.70;;;27.60;;
635;SDS011;302;50.206;8.196;2022-08-19T09:06:23;34.00;;;30.57;;
635;SDS011;302;50.206;8.196;2022-08-19T09:11:24;36.80;;;32.90;;
635;SDS011;302;50.206;8.196;2022-08-19T09:14:18;31.20;;;28.30;;
635;SDS011;302;50.206;8.196;2022-08-19T09:16:45;31.13;;;27.97;;
635;SDS011;302;50.206;8.196;2022-08-19T09:19:10;30.83;;;27.57;;
635;SDS011;302;50.206;8.196;2022-08-19T09:21:35;30.63;;;27.67;;
635;SDS011;302;50.206;8.196;2022-08-19T09:24:01;31.53;;;28.33;;
635;SDS011;302;50.206;8.196;2022-08-19T09:26:27;28.17;;;25.30;;
635;SDS011;302;50.206;8.196;2022-08-19T09:28:52;29.73;;;26.83;;
635;SDS011;302;50.206;8.196;2022-08-19T09:31:22;27.43;;;24.80;;
635;SDS011;302;50.206;8.196;2022-08-19T09:33:47;29.70;;;26.77;;
635;SDS011;302;50.206;8.196;2022-08-19T09:36:13;28.13;;;25.37;;
635;SDS011;302;50.206;8.196;2022-08-19T09:38:39;27.53;;;24.93;;
635;SDS011;302;50.206;8.196;2022-08-19T09:41:06;26.57;;;23.97;;
635;SDS011;302;50.206;8.196;2022-08-19T09:43:32;22.87;;;20.67;;
635;SDS011;302;50.206;8.196;2022-08-19T09:45:58;22.60;;;20.60;;
635;SDS011;302;50.206;8.196;2022-08-19T09:48:25;22.40;;;20.30;;
635;SDS011;302;50.206;8.196;2022-08-19T09:50:50;20.07;;;18.27;;
635;SDS011;302;50.206;8.196;2022-08-19T09:53:16;20.70;;;18.80;;
635;SDS011;302;50.206;8.196;2022-08-19T09:55:42;18.77;;;16.60;;
635;SDS011;302;50.206;8.196;2022-08-19T09:58:07;18.90;;;17.10;;
635;SDS011;302;50.206;8.196;2022-08-19T10:00:33;18.70;;;17.10;;
635;SDS011;302;50.206;8.196;2022-08-19T10:02:58;19.00;;;17.30;;
635;SDS011;302;50.206;8.196;2022-08-19T10:05:23;18.80;;;16.90;;
635;SDS011;302;50.206;8.196;2022-08-19T10:08:07;15.87;;;14.67;;
635;SDS011;302;50.206;8.196;2022-08-19T10:10:35;15.10;;;13.80;;
635;SDS011;302;50.206;8.196;2022-08-19T10:13:00;13.30;;;12.20;;
635;SDS011;302;50.206;8.196;2022-08-19T10:15:25;16.20;;;14.87;;
635;SDS011;302;50.206;8.196;2022-08-19T10:17:50;16.00;;;14.48;;
635;SDS011;302;50.206;8.196;2022-08-19T10:20:15;15.03;;;13.83;;
635;SDS011;302;50.206;8.196;2022-08-19T10:22:41;16.10;;;14.70;;
635;SDS011;302;50.206;8.196;2022-08-19T10:25:07;15.40;;;14.10;;
635;SDS011;302;50.206;8.196;2022-08-19T10:27:32;17.57;;;16.07;;
635;SDS011;302;50.206;8.196;2022-08-19T10:29:57;16.27;;;14.77;;
635;SDS011;302;50.206;8.196;2022-08-19T10:32:23;16.57;;;15.10;;
635;SDS011;302;50.206;8.196;2022-08-19T10:34:50;14.93;;;13.73;;
635;SDS011;302;50.206;8.196;2022-08-19T10:37:16;14.70;;;13.57;;
635;SDS011;302;50.206;8.196;2022-08-19T10:39:45;14.97;;;13.77;;
635;SDS011;302;50.206;8.196;2022-08-19T10:42:12;15.77;;;14.33;;
635;SDS011;302;50.206;8.196;2022-08-19T10:44:38;11.13;;;10.33;;
635;SDS011;302;50.206;8.196;2022-08-19T10:47:03;12.60;;;11.43;;
635;SDS011;302;50.206;8.196;2022-08-19T10:49:29;12.30;;;11.20;;
635;SDS011;302;50.206;8.196;2022-08-19T10:51:55;10.97;;;10.07;;
635;SDS011;302;50.206;8.196;2022-08-19T10:54:38;8.70;;;8.10;;
635;SDS011;302;50.206;8.196;2022-08-19T10:57:22;11.30;;;10.40;;
635;SDS011;302;50.206;8.196;2022-08-19T10:59:52;11.03;;;10.13;;
635;SDS011;302;50.206;8.196;2022-08-19T11:02:17;13.13;;;12.13;;
635;SDS011;302;50.206;8.196;2022-08-19T11:04:42;11.67;;;10.77;;
635;SDS011;302;50.206;8.196;2022-08-19T11:07:07;11.70;;;10.80;;
635;SDS011;302;50.206;8.196;2022-08-19T11:09:36;11.00;;;10.10;;
635;SDS011;302;50.206;8.196;2022-08-19T11:12:02;10.90;;;10.13;;
635;SDS011;302;50.206;8.196;2022-08-19T11:14:28;10.27;;;9.50;;
635;SDS011;302;50.206;8.196;2022-08-19T11:16:55;11.63;;;10.53;;
635;SDS011;302;50.206;8.196;2022-08-19T11:19:21;9.90;;;8.90;;
635;SDS011;302;50.206;8.196;2022-08-19T11:21:48;9.17;;;8.47;;
635;SDS011;302;50.206;8.196;2022-08-19T11:24:15;9.20;;;8.43;;
635;SDS011;302;50.206;8.196;2022-08-19T11:26:41;8.67;;;8.07;;
635;SDS011;302;50.206;8.196;2022-08-19T11:29:07;10.03;;;9.23;;
635;SDS011;302;50.206;8.196;2022-08-19T11:31:36;8.87;;;8.17;;
635;SDS011;302;50.206;8.196;2022-08-19T11:34:04;8.20;;;7.60;;
635;SDS011;302;50.206;8.196;2022-08-19T11:36:30;8.90;;;8.30;;
635;SDS011;302;50.206;8.196;2022-08-19T11:38:57;7.90;;;7.30;;
635;SDS011;302;50.206;8.196;2022-08-19T11:41:22;8.87;;;8.27;;
635;SDS011;302;50.206;8.196;2022-08-19T11:43:48;7.40;;;6.90;;
635;SDS011;302;50.206;8.196;2022-08-19T11:46:14;7.50;;;6.90;;
635;SDS011;302;50.206;8.196;2022-08-19T11:48:40;8.37;;;7.77;;
635;SDS011;302;50.206;8.196;2022-08-19T11:51:06;8.70;;;8.00;;
635;SDS011;302;50.206;8.196;2022-08-19T11:53:32;8.00;;;7.50;;
635;SDS011;302;50.206;8.196;2022-08-19T11:55:57;7.30;;;6.80;;
635;SDS011;302;50.206;8.196;2022-08-19T11:58:22;7.47;;;6.97;;
635;SDS011;302;50.206;8.196;2022-08-19T12:00:49;7.80;;;7.30;;
635;SDS011;302;50.206;8.196;2022-08-19T12:03:15;7.50;;;6.90;;
635;SDS011;302;50.206;8.196;2022-08-19T12:05:40;7.70;;;7.20;;
635;SDS011;302;50.206;8.196;2022-08-19T12:08:06;8.23;;;7.63;;
635;SDS011;302;50.206;8.196;2022-08-19T12:10:31;7.57;;;6.97;;
635;SDS011;302;50.206;8.196;2022-08-19T12:12:57;8.10;;;7.40;;
635;SDS011;302;50.206;8.196;2022-08-19T12:15:22;6.97;;;6.57;;
635;SDS011;302;50.206;8.196;2022-08-19T12:17:47;5.97;;;5.47;;
635;SDS011;302;50.206;8.196;2022-08-19T12:20:13;6.18;;;5.68;;
635;SDS011;302;50.206;8.196;2022-08-19T12:22:40;5.90;;;5.50;;
635;SDS011;302;50.206;8.196;2022-08-19T12:25:06;5.30;;;4.90;;
635;SDS011;302;50.206;8.196;2022-08-19T12:27:31;5.70;;;5.30;;
635;SDS011;302;50.206;8.196;2022-08-19T12:29:57;6.40;;;6.00;;
635;SDS011;302;50.206;8.196;2022-08-19T12:32:23;6.50;;;6.00;;
635;SDS011;302;50.206;8.196;2022-08-19T12:34:49;6.83;;;6.30;;
635;SDS011;302;50.206;8.196;2022-08-19T12:37:14;6.90;;;5.90;;
635;SDS011;302;50.206;8.196;2022-08-19T12:39:41;5.70;;;5.30;;
635;SDS011;302;50.206;8.196;2022-08-19T12:42:06;6.30;;;5.80;;
635;SDS011;302;50.206;8.196;2022-08-19T12:44:33;5.83;;;5.40;;
635;SDS011;302;50.206;8.196;2022-08-19T12:46:58;7.70;;;6.00;;
635;SDS011;302;50.206;8.196;2022-08-19T12:49:24;6.03;;;5.63;;
635;SDS011;302;50.206;8.196;2022-08-19T12:51:49;5.20;;;4.80;;
635;SDS011;302;50.206;8.196;2022-08-19T12:54:15;5.80;;;5.40;;
635;SDS011;302;50.206;8.196;2022-08-19T12:56:40;5.63;;;5.32;;
635;SDS011;302;50.206;8.196;2022-08-19T12:59:07;6.03;;;5.53;;
635;SDS011;302;50.206;8.196;2022-08-19T13:01:33;6.23;;;5.83;;
635;SDS011;302;50.206;8.196;2022-08-19T13:03:58;7.10;;;6.57;;
635;SDS011;302;50.206;8.196;2022-08-19T13:06:24;5.63;;;5.27;;
635;SDS011;302;50.206;8.196;2022-08-19T13:08:49;6.47;;;6.07;;
635;SDS011;302;50.206;8.196;2022-08-19T13:11:15;6.50;;;6.00;;
635;SDS011;302;50.206;8.196;2022-08-19T13:13:43;6.60;;;6.20;;
635;SDS011;302;50.206;8.196;2022-08-19T13:16:09;7.10;;;6.60;;
635;SDS011;302;50.206;8.196;2022-08-19T13:18:36;7.07;;;6.57;;
635;SDS011;302;50.206;8.196;2022-08-19T13:21:02;8.43;;;7.80;;
635;SDS011;302;50.206;8.196;2022-08-19T13:23:28;7.30;;;6.80;;
635;SDS011;302;50.206;8.196;2022-08-19T13:25:57;7.67;;;7.20;;
635;SDS011;302;50.206;8.196;2022-08-19T13:28:23;8.77;;;8.20;;
635;SDS011;302;50.206;8.196;2022-08-19T13:30:48;8.70;;;8.10;;
635;SDS011;302;50.206;8.196;2022-08-19T13:33:31;7.67;;;7.17;;
635;SDS011;302;50.206;8.196;2022-08-19T13:35:58;8.60;;;7.90;;
635;SDS011;302;50.206;8.196;2022-08-19T13:38:25;7.73;;;7.20;;
635;SDS011;302;50.206;8.196;2022-08-19T13:40:51;7.23;;;6.53;;
635;SDS011;302;50.206;8.196;2022-08-19T13:43:17;6.90;;;6.40;;
635;SDS011;302;50.206;8.196;2022-08-19T13:45:44;6.37;;;5.87;;
635;SDS011;302;50.206;8.196;2022-08-19T13:48:10;7.00;;;6.60;;
635;SDS011;302;50.206;8.196;2022-08-19T13:50:39;6.97;;;6.53;;
635;SDS011;302;50.206;8.196;2022-08-19T13:53:06;8.33;;;7.73;;
635;SDS011;302;50.206;8.196;2022-08-19T13:55:32;7.10;;;6.63;;
635;SDS011;302;50.206;8.196;2022-08-19T13:57:58;6.87;;;6.40;;
635;SDS011;302;50.206;8.196;2022-08-19T14:00:24;7.80;;;7.07;;
635;SDS011;302;50.206;8.196;2022-08-19T14:02:51;7.80;;;7.30;;
635;SDS011;302;50.206;8.196;2022-08-19T14:05:17;7.10;;;6.60;;
635;SDS011;302;50.206;8.196;2022-08-19T14:07:42;7.67;;;7.17;;
635;SDS011;302;50.206;8.196;2022-08-19T14:10:09;7.73;;;7.07;;
635;SDS011;302;50.206;8.196;2022-08-19T14:12:34;7.33;;;6.83;;
635;SDS011;302;50.206;8.196;2022-08-19T14:15:00;7.23;;;6.73;;
635;SDS011;302;50.206;8.196;2022-08-19T14:17:25;7.43;;;7.03;;
635;SDS011;302;50.206;8.196;2022-08-19T14:20:00;6.90;;;6.27;;
635;SDS011;302;50.206;8.196;2022-08-19T14:22:31;6.87;;;6.47;;
635;SDS011;302;50.206;8.196;2022-08-19T14:24:56;6.70;;;6.30;;
635;SDS011;302;50.206;8.196;2022-08-19T14:27:22;7.30;;;6.80;;
635;SDS011;302;50.206;8.196;2022-08-19T14:29:50;7.63;;;7.13;;
635;SDS011;302;50.206;8.196;2022-08-19T14:32:15;7.65;;;7.15;;
635;SDS011;302;50.206;8.196;2022-08-19T14:34:40;7.70;;;7.20;;
635;SDS011;302;50.206;8.196;2022-08-19T14:37:05;6.77;;;6.37;;
635;SDS011;302;50.206;8.196;2022-08-19T14:39:30;6.90;;;6.50;;
635;SDS011;302;50.206;8.196;2022-08-19T14:41:56;6.60;;;6.20;;
635;SDS011;302;50.206;8.196;2022-08-19T14:44:21;6.47;;;6.07;;
635;SDS011;302;50.206;8.196;2022-08-19T14:46:47;6.50;;;6.07;;
635;SDS011;302;50.206;8.196;2022-08-19T14:49:12;7.30;;;6.73;;
635;SDS011;302;50.206;8.196;2022-08-19T14:51:37;7.55;;;6.95;;
635;SDS011;302;50.206;8.196;2022-08-19T14:54:03;7.37;;;6.97;;
635;SDS011;302;50.206;8.196;2022-08-19T14:56:28;7.00;;;6.60;;
635;SDS011;302;50.206;8.196;2022-08-19T14:58:54;7.20;;;6.70;;
635;SDS011;302;50.206;8.196;2022-08-19T15:01:20;7.10;;;6.60;;
635;SDS011;302;50.206;8.196;2022-08-19T15:03:46;6.50;;;6.10;;
635;SDS011;302;50.206;8.196;2022-08-19T15:06:11;7.20;;;6.70;;
635;SDS011;302;50.206;8.196;2022-08-19T15:08:37;8.07;;;7.47;;
635;SDS011;302;50.206;8.196;2022-08-19T15:11:06;7.00;;;6.60;;
635;SDS011;302;50.206;8.196;2022-08-19T15:13:32;7.13;;;6.63;;
635;SDS011;302;50.206;8.196;2022-08-19T15:15:57;7.03;;;6.37;;
635;SDS011;302;50.206;8.196;2022-08-19T15:18:22;7.13;;;6.53;;
635;SDS011;302;50.206;8.196;2022-08-19T15:20:48;7.23;;;6.73;;
635;SDS011;302;50.206;8.196;2022-08-19T15:23:14;7.77;;;7.17;;
635;SDS011;302;50.206;8.196;2022-08-19T15:25:40;7.50;;;7.00;;